Details From RJSA - AOMORI
To RJCM - MEMANBETSU
Flight Number -
Tags generated
Created
Modified
Stats Distance 260 nm / 481 km
Max Altitude 31,500 ft / 9,601 m
Waypoints 6
Social Downloads 0
Likes 0
Share VATSIM

Download

Looking for another format? Having issues loading an existing format? Contact us
Advertisement - Login to hide

Notes

Basic altitude profile: - Ascent Rate: 2500ft/min - Ascent Speed: 250kts - Cruise Altitude: 35000ft - Cruise Speed: 420kts - Descent Rate: 1500ft/min - Descent Speed: 250kts Options: - Use NATs: yes - Use PACOTS: yes - Use low airways: yes - Use high airways: yes

Route

RJSA MRE10 Y13 NASEL V13 CHE V7 TOMAM RJCM

ID Type Via Altitude Latitude Longitude Leg Dist Tot Dist Heading (true) Name
O RJSA APT - 0 ft / 0 m 40.73327˚ 140.68859˚ - 0 nm - AOMORI
MRE10 FIX - 3,700 ft / 1,128 m 40.89512˚ 140.78181˚ 10 nm 10 nm 24° / 24° -
NASEL FIX Y13 (AWY-LO) 31,500 ft / 9,601 m 42.15346˚ 141.40985˚ 80 nm 91 nm 20° / 21° -
CHE VOR V13 (AWY-HI) 27,500 ft / 8,382 m 42.69990˚ 141.68617˚ 35 nm 126 nm 20° / 21° CHITOSE VOR-DME
TOMAM FIX V7 (AWY-HI) 21,000 ft / 6,401 m 43.13903˚ 142.03447˚ 30 nm 156 nm 30° / 30° -
O RJCM APT - 0 ft / 0 m 43.88061˚ 144.16405˚ 102 nm 259 nm 64° / 65° MEMANBETSU

Altitude Profile

Advertisement - Login to hide

Weather


0- 5 10 15 20 25 30 35+ Temperature / ° C

Clouds and Precipitation
Forecast for 2018-05-26 18:00 UTC. Updated an hour ago

Ground ~20,000 ft ~40,000 ft Winds

RJSA

Details ICAO RJSA (AOJ)
Name AOMORI
Region Japan
Timezone Asia/Tokyo (UTC+9.0)
Stats Elevation 664 ft / 202 m (AMSL)
Location 40.733272° 140.688594°
Runways 1
Magnetic Variation 8.960° W

METAR

Not found

TAF

TAF RJSA 261705Z 2618/2800 20004KT 9999 FEW030 BECMG 2622/2700 02008KT

Decode

Departure Runways

ID Width Length Bearing (true) Bearing (mag) Surface Threshold Offset Overrun Length
06 200 ft / 61 m 9,838 ft / 2,999 m 51.79° 60.75° Asphalt 0 ft / 0 m 200 ft / 61 m
24 200 ft / 61 m 9,838 ft / 2,999 m 231.81° 240.77° Asphalt 0 ft / 0 m 200 ft / 61 m

RJCM

Details ICAO RJCM (MMB)
Name MEMANBETSU
Region Japan
Timezone Asia/Tokyo (UTC+9.0)
Stats Elevation 135 ft / 41 m (AMSL)
Location 43.880606° 144.164053°
Runways 1
Magnetic Variation 9.221° W

METAR

Not found

TAF

TAF RJCM 261711Z 2618/2800 03010KT 9999 FEW015 SCT030 TEMPO 2618/2622 FEW005 BKN008 BECMG 2709/2712 19007KT

Decode

Destination Runways

ID Width Length Bearing (true) Bearing (mag) Surface Threshold Offset Overrun Length
18 150 ft / 46 m 8,211 ft / 2,503 m 174.68° 183.90° Asphalt 0 ft / 0 m 197 ft / 60 m
36 150 ft / 46 m 8,211 ft / 2,503 m 354.68° 3.90° Asphalt 0 ft / 0 m 197 ft / 60 m

Approach Navaids

Runway Type Ident Frequency Range Bearing (true) Bearing (mag) Slope Elevation
18 Localiser ITB 110.10 MHz 18 nm / 33 km 174.68° 183.90° - 132 ft / 40 m (AMSL)
18 Glidescope ITB 110.10 MHz 10 nm / 19 km 174.68° 183.90° 3.00° 135 ft / 41 m (AMSL)

Popular Alternatives